CheckWX is a tool to help pilots better visualize weather data.  It is not intended as a substitute for an official pre-flight weather briefing.

17:24:21 UTC

EYKA METAR
Kaunas International Airport
Kaunas, Lithuania
Current

34 mins ago

EYKA 181650Z 31005KT 250V030 CAVOK 23/08 Q1010
Observed
Jul-18 @ 16:50 UTC
Wind
  • 310° at 5 KTS
Visibility
10,000+ meters
Flight Rules
VFR
Cloud Levels
  • Clear skies
Temperature
23°C / 73°F
Dewpoint
C / 46°F
Humidity
38%
Altimeter
29.82" Hg
Pressure
1009.92 hPa
Previous

1 hour ago

EYKA 181620Z 30006KT 250V010 CAVOK 23/07 Q1010
Observed
Jul-18 @ 16:20 UTC
Wind
  • 300° at 6 KTS
Visibility
10,000+ meters
Flight Rules
VFR
Cloud Levels
  • Clear skies
Temperature
23°C / 73°F
Dewpoint
C / 45°F
Humidity
36%
Altimeter
29.82" Hg
Pressure
1009.92 hPa
Previous

2 hours ago

EYKA 181550Z VRB05KT CAVOK 23/09 Q1010
Observed
Jul-18 @ 15:50 UTC
Wind
  • Variable at 5 KTS
Visibility
10,000+ meters
Flight Rules
VFR
Cloud Levels
  • Clear skies
Temperature
23°C / 73°F
Dewpoint
C / 48°F
Humidity
41%
Altimeter
29.82" Hg
Pressure
1009.92 hPa